Time;durP1;ratioP1;P1;durP2;ratioP2;P2;SDS_P1;SDS_P2;PMS_P1;PMS_P2;Temp;Humidity;BMP_temperature;BMP_pressure;BME280_temperature;BME280_humidity;BME280_pressure;Samples;Min_cycle;Max_cycle;Signal;HPM_P1;HPM_P2
2023/04/02 00:02:33;;;;;;;;;;;;;;;5.65;83.64;92511.28;5023974;28;19959;-37
2023/04/02 00:05:18;;;;;;;;;;;;;;;5.55;84.79;92507.59;5042748;28;20054;-37
2023/04/02 00:07:49;;;;;;;;;;;;;;;5.48;85.81;92513.03;5008664;28;21394;-38
2023/04/02 00:10:24;;;;;;;;;;;;;;;5.44;85.43;92518.09;5020273;28;20402;-38
2023/04/02 00:13:06;;;;;;;;;;;;;;;5.44;85.43;92513.38;5025391;28;19939;-38
2023/04/02 00:15:32;;;;;;;;;;;;;;;5.44;85.57;92507.16;5051011;28;20471;-38
2023/04/02 00:17:58;;;;;;;;;;;;;;;5.36;86.34;92518.06;5024855;28;20031;-37
2023/04/02 00:20:23;;;;;;;;;;;;;;;5.46;84.98;92521.06;5029024;28;19962;-38
2023/04/02 00:22:48;;;;;;;;;;;;;;;5.41;85.40;92519.94;5055931;28;20347;-38
2023/04/02 00:25:14;;;;;;;;;;;;;;;5.42;85.34;92517.91;5033242;28;19933;-37
2023/04/02 00:27:39;;;;;;;;;;;;;;;5.49;85.04;92515.22;5024571;28;19979;-37
2023/04/02 00:30:05;;;;;;;;;;;;;;;5.38;85.46;92512.78;5041007;28;20474;-38
2023/04/02 00:32:30;;;;;;;;;;;;;;;5.38;85.41;92510.06;5015362;28;19939;-38
2023/04/02 00:34:56;;;;;;;;;;;;;;;5.29;85.95;92507.78;5026779;28;20017;-38
2023/04/02 00:37:26;;;;;;;;;;;;;;;5.30;86.18;92509.28;5019210;28;19980;-38
2023/04/02 00:39:57;;;;;;;;;;;;;;;5.30;86.22;92498.34;5023581;28;19943;-37
2023/04/02 00:42:24;;;;;;;;;;;;;;;5.35;85.54;92500.16;5015414;28;20395;-38
2023/04/02 00:44:49;;;;;;;;;;;;;;;5.28;85.92;92498.13;5047519;28;20386;-37
2023/04/02 00:47:23;;;;;;;;;;;;;;;5.32;85.64;92502.00;5024499;28;20012;-37
2023/04/02 00:49:58;;;;;;;;;;;;;;;5.29;85.70;92499.59;5017588;28;20433;-38
2023/04/02 00:52:25;;;;;;;;;;;;;;;5.24;85.88;92498.47;5018501;28;20021;-37
2023/04/02 00:55:03;;;;;;;;;;;;;;;5.26;85.69;92500.69;5037475;28;20382;-37
2023/04/02 00:57:28;;;;;;;;;;;;;;;5.31;85.35;92492.31;5052881;28;19925;-37
2023/04/02 00:59:55;;;;;;;;;;;;;;;5.28;84.98;92490.63;5015506;28;20471;-37
2023/04/02 01:02:26;;;;;;;;;;;;;;;5.22;85.27;92486.59;5025182;28;20505;-38
2023/04/02 01:04:59;;;;;;;;;;;;;;;5.28;84.81;92485.16;5023304;28;19933;-38
2023/04/02 01:07:53;;;;;;;;;;;;;;;5.33;84.05;92481.56;5019540;28;20055;-38
2023/04/02 01:10:28;;;;;;;;;;;;;;;5.27;84.42;92478.25;5023574;28;20434;-38
2023/04/02 01:12:56;;;;;;;;;;;;;;;5.27;83.94;92478.25;5018750;28;20486;-38
2023/04/02 01:15:29;;;;;;;;;;;;;;;5.32;83.17;92485.56;5051960;28;19940;-38
2023/04/02 01:17:57;;;;;;;;;;;;;;;5.35;83.71;92494.69;5052091;28;19995;-38
2023/04/02 01:20:41;;;;;;;;;;;;;;;5.38;83.27;92496.38;5015066;28;20006;-38
2023/04/02 01:23:08;;;;;;;;;;;;;;;5.29;83.52;92502.31;5018450;28;19936;-38
2023/04/02 01:25:44;;;;;;;;;;;;;;;5.33;83.07;92495.25;5023744;28;20075;-38
2023/04/02 01:28:13;;;;;;;;;;;;;;;5.37;82.76;92492.19;5056191;28;19931;-38
2023/04/02 01:30:40;;;;;;;;;;;;;;;5.55;81.57;92495.91;5021885;28;19939;-37
2023/04/02 01:33:05;;;;;;;;;;;;;;;5.43;82.32;92492.75;5049377;28;19945;-38
2023/04/02 01:35:32;;;;;;;;;;;;;;;5.46;81.68;92493.69;5022683;28;19931;-38
2023/04/02 01:37:57;;;;;;;;;;;;;;;5.47;81.45;92501.34;5052016;28;19937;-38
2023/04/02 01:40:35;;;;;;;;;;;;;;;5.48;80.99;92508.28;5025834;28;19933;-38
2023/04/02 01:43:03;;;;;;;;;;;;;;;5.52;80.91;92502.47;5020345;28;20006;-38
2023/04/02 01:45:29;;;;;;;;;;;;;;;5.51;80.70;92509.22;5016700;28;19979;-38
2023/04/02 01:47:54;;;;;;;;;;;;;;;5.55;80.28;92509.59;5018060;28;20020;-38
2023/04/02 01:50:21;;;;;;;;;;;;;;;5.60;79.61;92503.25;5021635;28;20342;-38
2023/04/02 01:52:51;;;;;;;;;;;;;;;5.54;80.14;92506.16;5019513;28;19967;-38
2023/04/02 01:55:18;;;;;;;;;;;;;;;5.36;81.28;92496.91;5057519;28;20347;-38
2023/04/02 01:57:46;;;;;;;;;;;;;;;5.32;81.77;92499.25;5019753;28;20331;-38
2023/04/02 02:00:15;;;;;;;;;;;;;;;5.25;82.54;92488.25;5046823;28;19976;-38
2023/04/02 02:02:41;;;;;;;;;;;;;;;5.12;83.25;92491.09;5017002;28;19941;-38
2023/04/02 02:05:13;;;;;;;;;;;;;;;5.14;82.68;92496.75;5047785;28;20019;-38
2023/04/02 02:07:39;;;;;;;;;;;;;;;5.27;81.54;92497.41;5020463;28;20409;-38
2023/04/02 02:10:05;;;;;;;;;;;;;;;5.22;81.80;92495.53;5022215;28;19942;-38
2023/04/02 02:12:30;;;;;;;;;;;;;;;5.07;82.65;92502.88;5049535;28;19939;-38
2023/04/02 02:14:55;;;;;;;;;;;;;;;5.03;83.31;92495.03;5020616;28;19939;-38
2023/04/02 02:17:25;;;;;;;;;;;;;;;4.97;83.72;92488.97;5017602;28;20582;-38
2023/04/02 02:19:51;;;;;;;;;;;;;;;5.04;83.37;92491.03;5024355;28;19983;-37
2023/04/02 02:22:26;;;;;;;;;;;;;;;5.14;81.73;92485.81;5020094;28;19967;-38
2023/04/02 02:24:52;;;;;;;;;;;;;;;5.10;83.12;92493.63;5017149;28;19994;-37
2023/04/02 02:27:23;;;;;;;;;;;;;;;5.14;83.01;92488.53;5056138;28;19979;-37
2023/04/02 02:29:52;;;;;;;;;;;;;;;5.05;83.02;92494.50;5017907;28;20325;-37
2023/04/02 02:32:18;;;;;;;;;;;;;;;5.01;84.16;92503.03;5031773;28;19939;-38
2023/04/02 02:35:01;;;;;;;;;;;;;;;5.13;82.88;92495.28;5016295;28;19914;-38
2023/04/02 02:37:30;;;;;;;;;;;;;;;5.13;82.42;92506.25;5046833;28;20405;-38
2023/04/02 02:39:56;;;;;;;;;;;;;;;5.23;81.87;92504.47;5024664;28;20181;-38
2023/04/02 02:42:23;;;;;;;;;;;;;;;5.15;82.07;92503.69;5037655;28;19928;-38
2023/04/02 02:44:48;;;;;;;;;;;;;;;5.10;82.16;92501.81;5047456;28;20007;-38
2023/04/02 02:47:15;;;;;;;;;;;;;;;5.12;82.03;92507.50;5011541;28;20071;-38
2023/04/02 02:49:45;;;;;;;;;;;;;;;5.12;82.49;92505.50;5048064;28;19921;-38
2023/04/02 02:52:15;;;;;;;;;;;;;;;5.05;83.78;92511.66;5053918;28;19927;-38
2023/04/02 02:54:42;;;;;;;;;;;;;;;5.02;83.52;92509.25;5050624;28;20455;-38
2023/04/02 02:57:08;;;;;;;;;;;;;;;4.95;83.35;92515.41;5026884;28;19935;-38
2023/04/02 02:59:34;;;;;;;;;;;;;;;4.95;82.94;92505.19;5035368;28;19917;-38
2023/04/02 03:01:59;;;;;;;;;;;;;;;5.01;82.39;92507.78;5020096;28;19952;-38
2023/04/02 03:04:24;;;;;;;;;;;;;;;5.03;81.96;92507.97;5052340;28;19940;-38
2023/04/02 03:06:54;;;;;;;;;;;;;;;4.97;82.49;92519.06;5018491;28;19922;-38
2023/04/02 03:09:38;;;;;;;;;;;;;;;4.92;84.13;92514.44;5052692;28;19925;-38
2023/04/02 03:12:13;;;;;;;;;;;;;;;4.76;84.37;92520.34;5019033;28;19990;-38
2023/04/02 03:14:44;;;;;;;;;;;;;;;4.58;85.43;92524.72;5047231;28;19914;-38
2023/04/02 03:17:11;;;;;;;;;;;;;;;4.80;84.82;92518.00;5018433;28;19917;-38
2023/04/02 03:19:42;;;;;;;;;;;;;;;4.95;83.90;92516.13;5045198;28;19926;-38
2023/04/02 03:22:13;;;;;;;;;;;;;;;4.61;85.86;92518.22;5056070;28;19923;-38
2023/04/02 03:24:52;;;;;;;;;;;;;;;4.46;87.03;92526.25;5048292;28;20047;-37
2023/04/02 03:27:29;;;;;;;;;;;;;;;4.37;88.00;92521.97;5052468;28;19936;-37
2023/04/02 03:29:55;;;;;;;;;;;;;;;4.36;88.25;92519.75;5036244;28;20283;-37
2023/04/02 03:32:25;;;;;;;;;;;;;;;4.34;88.18;92528.50;5013658;28;19928;-37
2023/04/02 03:34:57;;;;;;;;;;;;;;;4.21;89.06;92525.81;5022634;28;19916;-37
2023/04/02 03:37:31;;;;;;;;;;;;;;;4.13;90.76;92544.13;5053866;28;19917;-37
2023/04/02 03:40:03;;;;;;;;;;;;;;;4.07;91.50;92538.03;5026430;28;19921;-37
2023/04/02 03:42:29;;;;;;;;;;;;;;;4.02;92.21;92538.88;5020844;28;19917;-37
2023/04/02 03:44:59;;;;;;;;;;;;;;;3.96;91.63;92535.53;5049090;28;19925;-37
2023/04/02 03:47:24;;;;;;;;;;;;;;;3.82;92.16;92550.47;5048013;28;19918;-37
2023/04/02 03:49:55;;;;;;;;;;;;;;;3.76;92.55;92538.94;5021039;28;19924;-37
2023/04/02 03:52:27;;;;;;;;;;;;;;;3.86;93.50;92542.69;5058491;28;19951;-37
2023/04/02 03:54:56;;;;;;;;;;;;;;;3.98;92.77;92545.94;5015894;28;20357;-37
2023/04/02 03:57:27;;;;;;;;;;;;;;;3.87;92.47;92554.34;5021291;28;19957;-37
2023/04/02 04:00:13;;;;;;;;;;;;;;;3.97;92.32;92550.66;5050075;28;19914;-37
2023/04/02 04:02:38;;;;;;;;;;;;;;;4.08;89.63;92544.22;5022945;28;20306;-38
2023/04/02 04:05:04;;;;;;;;;;;;;;;3.54;93.25;92551.00;5022015;28;19924;-37
2023/04/02 04:07:35;;;;;;;;;;;;;;;3.58;94.15;92556.16;5016400;28;20322;-38
2023/04/02 04:10:01;;;;;;;;;;;;;;;3.66;93.25;92559.72;5055212;28;19923;-37
2023/04/02 04:12:29;;;;;;;;;;;;;;;3.53;94.38;92562.47;5026214;28;20015;-37
2023/04/02 04:15:06;;;;;;;;;;;;;;;3.63;93.69;92563.50;5040963;28;19920;-37
2023/04/02 04:17:34;;;;;;;;;;;;;;;3.66;93.55;92559.72;5049072;28;19955;-38
2023/04/02 04:19:59;;;;;;;;;;;;;;;3.53;93.91;92573.38;5027656;28;19941;-38
2023/04/02 04:22:28;;;;;;;;;;;;;;;3.59;93.80;92565.81;5019083;28;19942;-38
2023/04/02 04:24:56;;;;;;;;;;;;;;;3.48;94.83;92572.22;5038099;28;20369;-37
2023/04/02 04:27:33;;;;;;;;;;;;;;;3.61;94.95;92569.50;5052837;28;19966;-38
2023/04/02 04:30:04;;;;;;;;;;;;;;;3.50;95.22;92566.22;5022845;28;19940;-38
2023/04/02 04:32:31;;;;;;;;;;;;;;;3.46;95.05;92574.00;5059154;28;20010;-38
2023/04/02 04:35:25;;;;;;;;;;;;;;;3.44;95.28;92577.25;5022900;28;19925;-37
2023/04/02 04:38:02;;;;;;;;;;;;;;;3.38;94.19;92584.78;5018336;28;19922;-37
2023/04/02 04:40:28;;;;;;;;;;;;;;;3.55;93.80;92589.97;5025849;28;19923;-37
2023/04/02 04:42:54;;;;;;;;;;;;;;;3.52;94.19;92588.25;5027641;28;19979;-37
2023/04/02 04:45:38;;;;;;;;;;;;;;;3.54;94.41;92588.47;5052931;28;20409;-37
2023/04/02 04:48:12;;;;;;;;;;;;;;;3.54;95.03;92591.94;5021938;28;20055;-37
2023/04/02 04:50:38;;;;;;;;;;;;;;;3.55;95.25;92590.69;5023653;28;20385;-37
2023/04/02 04:53:06;;;;;;;;;;;;;;;3.56;95.58;92583.97;5022100;28;19925;-37
2023/04/02 04:55:35;;;;;;;;;;;;;;;3.60;95.14;92583.66;5020448;28;20325;-37
2023/04/02 04:58:04;;;;;;;;;;;;;;;3.65;95.02;92589.00;5017249;28;19917;-37
2023/04/02 05:00:35;;;;;;;;;;;;;;;3.72;93.73;92587.66;5022601;28;20487;-37
2023/04/02 05:03:19;;;;;;;;;;;;;;;3.73;92.91;92583.66;5021781;28;19917;-38
2023/04/02 05:05:44;;;;;;;;;;;;;;;3.90;93.19;92584.06;5017042;28;19921;-37
2023/04/02 05:08:12;;;;;;;;;;;;;;;3.79;92.93;92587.75;5023346;28;20313;-37
2023/04/02 05:10:50;;;;;;;;;;;;;;;3.79;92.21;92595.19;5018532;28;19924;-37
2023/04/02 05:13:17;;;;;;;;;;;;;;;3.84;89.65;92591.63;5049496;28;20393;-37
2023/04/02 05:15:54;;;;;;;;;;;;;;;3.55;91.09;92593.41;5059196;28;19944;-37
2023/04/02 05:18:22;;;;;;;;;;;;;;;3.67;91.45;92597.41;5023779;28;20463;-38
2023/04/02 05:20:52;;;;;;;;;;;;;;;3.50;92.01;92590.78;5051667;28;20002;-38
2023/04/02 05:23:25;;;;;;;;;;;;;;;3.58;91.16;92583.44;5032776;28;19921;-38
2023/04/02 05:26:11;;;;;;;;;;;;;;;3.36;91.96;92600.94;5059909;28;19921;-38
2023/04/02 05:28:40;;;;;;;;;;;;;;;3.53;93.06;92600.66;5051862;28;19913;-38
2023/04/02 05:31:08;;;;;;;;;;;;;;;3.51;92.19;92597.72;5024118;28;19925;-38
2023/04/02 05:33:33;;;;;;;;;;;;;;;3.64;92.39;92594.97;5020856;28;20432;-38
2023/04/02 05:36:03;;;;;;;;;;;;;;;3.62;92.42;92592.03;5041065;28;20000;-37
2023/04/02 05:38:29;;;;;;;;;;;;;;;4.01;92.35;92594.00;5029611;28;19912;-37
2023/04/02 05:41:01;;;;;;;;;;;;;;;4.28;90.56;92607.13;5025761;28;19963;-37
2023/04/02 05:43:27;;;;;;;;;;;;;;;4.52;89.66;92614.31;5045514;28;20333;-38
2023/04/02 05:45:53;;;;;;;;;;;;;;;4.93;85.42;92605.44;5036606;28;19921;-37
2023/04/02 05:48:20;;;;;;;;;;;;;;;5.27;85.56;92614.34;5054329;28;20004;-37
2023/04/02 05:50:50;;;;;;;;;;;;;;;5.63;81.97;92606.94;5055505;28;20145;-37
2023/04/02 05:53:32;;;;;;;;;;;;;;;6.00;81.27;92609.22;5055814;28;19917;-38
2023/04/02 05:55:58;;;;;;;;;;;;;;;6.11;79.76;92602.69;5057967;28;19927;-38
2023/04/02 05:58:28;;;;;;;;;;;;;;;6.42;79.30;92612.53;5020489;28;19913;-38
2023/04/02 06:00:53;;;;;;;;;;;;;;;6.74;77.30;92617.59;5053184;28;19954;-38
2023/04/02 06:03:34;;;;;;;;;;;;;;;6.86;77.07;92626.97;5022609;28;19913;-38
2023/04/02 06:06:00;;;;;;;;;;;;;;;7.79;73.87;92627.25;5020963;28;19968;-38
2023/04/02 06:08:46;;;;;;;;;;;;;;;8.77;71.14;92624.31;5052528;28;19942;-38
2023/04/02 06:11:12;;;;;;;;;;;;;;;10.87;64.77;92614.91;5025994;28;20013;-38
2023/04/02 06:13:37;;;;;;;;;;;;;;;12.82;59.30;92610.38;5019262;28;20048;-38
2023/04/02 06:16:03;;;;;;;;;;;;;;;14.26;50.66;92611.44;5018266;28;20047;-38
2023/04/02 06:18:32;;;;;;;;;;;;;;;15.69;49.96;92612.38;5018731;28;19996;-38
2023/04/02 06:20:57;;;;;;;;;;;;;;;15.61;47.60;92613.94;5058456;28;19934;-38
2023/04/02 06:23:24;;;;;;;;;;;;;;;15.11;47.50;92606.63;5031545;28;19979;-38
2023/04/02 06:25:51;;;;;;;;;;;;;;;14.77;46.18;92609.25;5056505;28;20009;-38
2023/04/02 06:28:17;;;;;;;;;;;;;;;14.65;47.54;92614.00;5058280;28;20037;-38
2023/04/02 06:30:42;;;;;;;;;;;;;;;13.54;49.21;92612.03;5042408;28;19940;-38
2023/04/02 06:33:08;;;;;;;;;;;;;;;14.38;48.97;92608.75;5042634;28;20437;-38
2023/04/02 06:35:34;;;;;;;;;;;;;;;14.72;47.30;92613.81;5042849;28;19928;-38
2023/04/02 06:38:00;;;;;;;;;;;;;;;14.59;47.61;92619.91;5048056;28;19930;-38
2023/04/02 06:40:37;;;;;;;;;;;;;;;13.72;48.22;92618.84;5060985;28;19933;-38
2023/04/02 06:43:34;;;;;;;;;;;;;;;13.57;48.98;92621.97;5017439;28;19935;-38
2023/04/02 06:46:00;;;;;;;;;;;;;;;13.35;49.94;92623.91;5024182;28;20013;-38
2023/04/02 06:48:25;;;;;;;;;;;;;;;12.60;51.72;92630.91;5051742;28;19932;-38
2023/04/02 06:51:01;;;;;;;;;;;;;;;13.06;51.29;92631.50;5059858;28;19940;-38
2023/04/02 06:53:27;;;;;;;;;;;;;;;13.42;50.53;92625.78;5053274;28;19936;-38
2023/04/02 06:55:55;;;;;;;;;;;;;;;12.86;50.68;92625.22;5060423;28;19925;-38
2023/04/02 06:58:20;;;;;;;;;;;;;;;13.53;50.78;92625.19;5019117;28;19933;-38
2023/04/02 07:00:46;;;;;;;;;;;;;;;13.81;48.11;92626.41;5025031;28;20355;-38
2023/04/02 07:03:14;;;;;;;;;;;;;;;15.22;46.66;92630.25;5025381;28;19990;-38
2023/04/02 07:05:40;;;;;;;;;;;;;;;16.47;42.98;92638.69;5019348;28;19952;-38
2023/04/02 07:08:06;;;;;;;;;;;;;;;17.29;43.21;92636.44;5017185;28;20887;-38
2023/04/02 07:10:32;;;;;;;;;;;;;;;18.67;39.65;92631.34;5023454;28;19935;-38
2023/04/02 07:12:57;;;;;;;;;;;;;;;18.75;39.91;92640.16;5018704;28;19954;-38
2023/04/02 07:15:24;;;;;;;;;;;;;;;19.09;39.42;92639.09;5024031;28;20437;-38
2023/04/02 07:17:50;;;;;;;;;;;;;;;19.74;35.24;92639.44;5026902;28;19942;-38
2023/04/02 07:20:29;;;;;;;;;;;;;;;20.32;36.41;92645.72;5028754;28;19932;-38
2023/04/02 07:22:54;;;;;;;;;;;;;;;21.23;34.95;92649.72;5028060;28;19932;-39
2023/04/02 07:25:20;;;;;;;;;;;;;;;20.94;34.58;92647.75;5023454;28;19932;-38
2023/04/02 07:27:45;;;;;;;;;;;;;;;21.07;35.79;92649.75;5027565;28;19983;-38
2023/04/02 07:30:11;;;;;;;;;;;;;;;21.58;34.59;92663.09;5023106;28;20434;-37
2023/04/02 07:32:37;;;;;;;;;;;;;;;21.78;33.84;92652.69;5020566;28;19933;-38
2023/04/02 07:35:02;;;;;;;;;;;;;;;20.92;34.31;92647.66;5019937;28;19970;-38
2023/04/02 07:37:28;;;;;;;;;;;;;;;20.90;33.81;92647.56;5025898;28;19978;-38
2023/04/02 07:39:53;;;;;;;;;;;;;;;20.82;32.95;92650.03;5024912;28;20578;-38
2023/04/02 07:42:18;;;;;;;;;;;;;;;20.38;32.93;92646.00;5025138;28;19931;-38
2023/04/02 07:44:44;;;;;;;;;;;;;;;21.40;31.28;92653.91;5019455;28;19938;-38
2023/04/02 07:47:09;;;;;;;;;;;;;;;21.79;30.54;92660.47;5030564;28;20044;-38
2023/04/02 07:49:35;;;;;;;;;;;;;;;20.79;32.65;92654.09;5024552;28;19965;-38
2023/04/02 07:52:00;;;;;;;;;;;;;;;20.46;33.34;92653.31;5023535;28;19940;-38
2023/04/02 07:54:26;;;;;;;;;;;;;;;21.62;33.07;92658.34;5024886;28;19970;-38
2023/04/02 07:56:51;;;;;;;;;;;;;;;22.19;30.49;92666.25;5026103;28;19936;-38
2023/04/02 07:59:16;;;;;;;;;;;;;;;21.65;31.28;92662.72;5038950;28;20024;-38
2023/04/02 08:01:42;;;;;;;;;;;;;;;22.20;31.21;92659.97;5028410;28;19966;-38
2023/04/02 08:04:15;;;;;;;;;;;;;;;22.34;30.60;92666.16;5027719;28;19929;-38
2023/04/02 08:06:40;;;;;;;;;;;;;;;23.62;29.80;92669.38;5020288;28;19966;-38
2023/04/02 08:09:06;;;;;;;;;;;;;;;23.99;29.46;92662.84;5022207;28;20412;-38
2023/04/02 08:11:31;;;;;;;;;;;;;;;22.34;29.56;92682.31;5025245;28;19930;-38
2023/04/02 08:13:56;;;;;;;;;;;;;;;23.69;28.33;92673.84;5027020;28;19946;-38
2023/04/02 08:16:24;;;;;;;;;;;;;;;24.75;26.46;92668.03;5022947;28;19934;-39
2023/04/02 08:18:49;;;;;;;;;;;;;;;23.94;27.32;92669.72;5024299;28;20031;-38
2023/04/02 08:21:15;;;;;;;;;;;;;;;24.52;28.01;92676.50;5022514;28;20667;-39
2023/04/02 08:23:41;;;;;;;;;;;;;;;24.18;28.49;92672.63;5019994;28;20453;-38
2023/04/02 08:26:06;;;;;;;;;;;;;;;25.02;27.23;92672.34;5025342;28;19973;-38
2023/04/02 08:28:32;;;;;;;;;;;;;;;24.81;27.18;92673.16;5030548;28;20390;-38
2023/04/02 08:30:57;;;;;;;;;;;;;;;25.76;25.70;92670.13;5029135;28;20317;-38
2023/04/02 08:33:23;;;;;;;;;;;;;;;25.03;26.53;92670.97;5028557;28;19945;-38
2023/04/02 08:35:48;;;;;;;;;;;;;;;22.77;28.99;92676.19;5028458;28;19935;-38
2023/04/02 08:38:14;;;;;;;;;;;;;;;22.34;31.77;92679.50;5053362;28;20028;-38
2023/04/02 08:40:41;;;;;;;;;;;;;;;23.79;29.71;92681.91;5022559;28;19928;-38
2023/04/02 08:43:27;;;;;;;;;;;;;;;24.88;27.64;92671.97;5023001;28;19929;-38
2023/04/02 08:46:11;;;;;;;;;;;;;;;26.40;26.48;92671.00;5024011;28;19958;-39
2023/04/02 08:48:37;;;;;;;;;;;;;;;26.49;26.25;92676.16;5020263;28;19936;-39
2023/04/02 08:51:04;;;;;;;;;;;;;;;26.97;24.71;92682.19;5051815;28;19941;-38
2023/04/02 08:53:31;;;;;;;;;;;;;;;26.72;25.32;92680.22;5022074;28;20114;-38
2023/04/02 08:56:07;;;;;;;;;;;;;;;25.50;26.58;92685.03;5015817;28;21241;-38
2023/04/02 08:58:42;;;;;;;;;;;;;;;24.26;27.41;92689.78;5019406;28;20094;-38
2023/04/02 09:01:19;;;;;;;;;;;;;;;22.49;29.82;92695.53;5022221;28;19957;-38
2023/04/02 09:03:45;;;;;;;;;;;;;;;20.61;32.02;92683.44;5034894;28;19981;-38
2023/04/02 09:06:12;;;;;;;;;;;;;;;20.28;34.12;92696.00;5053322;28;19995;-38
2023/04/02 09:08:37;;;;;;;;;;;;;;;20.28;33.50;92687.59;5048492;28;19954;-38
2023/04/02 09:11:07;;;;;;;;;;;;;;;19.41;35.40;92691.09;5020538;28;19934;-38
2023/04/02 09:13:33;;;;;;;;;;;;;;;20.09;35.94;92684.53;5047033;28;19932;-38
2023/04/02 09:16:01;;;;;;;;;;;;;;;21.01;33.35;92676.81;5052266;28;20085;-38
2023/04/02 09:18:32;;;;;;;;;;;;;;;22.21;31.85;92675.50;5024442;28;20448;-38
2023/04/02 09:20:58;;;;;;;;;;;;;;;24.48;30.42;92676.38;5049980;28;20375;-38
2023/04/02 09:23:24;;;;;;;;;;;;;;;25.10;27.07;92672.56;5050326;28;19935;-38
2023/04/02 09:25:51;;;;;;;;;;;;;;;25.49;26.71;92658.13;5016548;28;19955;-38
2023/04/02 09:28:19;;;;;;;;;;;;;;;26.08;25.94;92659.59;5017226;28;19942;-38
2023/04/02 09:31:23;;;;;;;;;;;;;;;26.14;24.89;92657.66;5016582;28;19940;-39
2023/04/02 09:33:49;;;;;;;;;;;;;;;26.40;24.17;92660.38;5036710;28;19934;-38
2023/04/02 09:36:18;;;;;;;;;;;;;;;24.41;28.20;92667.00;5039689;28;19963;-38
2023/04/02 09:38:55;;;;;;;;;;;;;;;25.31;26.83;92668.94;5028205;28;20021;-38
2023/04/02 09:41:21;;;;;;;;;;;;;;;25.04;26.71;92672.41;5018963;28;19942;-38
2023/04/02 09:43:46;;;;;;;;;;;;;;;24.94;25.38;92662.94;5021097;28;19943;-38
2023/04/02 09:46:11;;;;;;;;;;;;;;;24.88;26.84;92662.75;5019490;28;20047;-38
2023/04/02 09:48:44;;;;;;;;;;;;;;;23.99;27.10;92672.03;5016488;28;19942;-38
2023/04/02 09:51:15;;;;;;;;;;;;;;;22.20;29.49;92665.59;5033556;28;20435;-38
2023/04/02 09:53:44;;;;;;;;;;;;;;;20.81;31.42;92671.03;5019996;28;19938;-38
2023/04/02 09:56:21;;;;;;;;;;;;;;;22.16;30.82;92667.53;5016416;28;19935;-38
2023/04/02 09:59:07;;;;;;;;;;;;;;;22.33;29.52;92658.34;5020503;28;20183;-38
2023/04/02 10:01:37;;;;;;;;;;;;;;;23.70;29.42;92657.66;5020555;28;19959;-38
2023/04/02 10:04:04;;;;;;;;;;;;;;;24.79;27.10;92656.91;5020729;28;19937;-38
2023/04/02 10:06:30;;;;;;;;;;;;;;;25.15;26.15;92651.53;5049399;28;19957;-38
2023/04/02 10:08:56;;;;;;;;;;;;;;;24.16;24.51;92662.00;5049520;28;19936;-38
2023/04/02 10:11:29;;;;;;;;;;;;;;;24.85;26.42;92653.50;5018409;28;20423;-38
2023/04/02 10:13:58;;;;;;;;;;;;;;;25.41;26.00;92666.38;5015780;28;20501;-38
2023/04/02 10:16:33;;;;;;;;;;;;;;;25.38;25.90;92656.38;5047100;28;19936;-38
2023/04/02 10:19:06;;;;;;;;;;;;;;;25.58;23.78;92654.13;5016047;28;19949;-38
2023/04/02 10:21:32;;;;;;;;;;;;;;;25.05;26.39;92654.09;5047266;28;19942;-38
2023/04/02 10:24:01;;;;;;;;;;;;;;;24.91;26.77;92650.13;5018213;28;19933;-38
2023/04/02 10:26:46;;;;;;;;;;;;;;;25.10;24.49;92649.97;5023996;28;19957;-38
2023/04/02 10:29:14;;;;;;;;;;;;;;;24.16;27.79;92650.72;5022542;28;19966;-38
2023/04/02 10:31:46;;;;;;;;;;;;;;;25.09;25.48;92645.72;5032206;28;20307;-38
2023/04/02 10:34:13;;;;;;;;;;;;;;;26.84;23.15;92638.75;5016806;28;20632;-38
2023/04/02 10:36:56;;;;;;;;;;;;;;;25.42;24.02;92639.59;5015165;28;20431;-39
2023/04/02 10:39:30;;;;;;;;;;;;;;;25.04;25.22;92641.34;5019513;28;19936;-38
2023/04/02 10:42:07;;;;;;;;;;;;;;;23.74;26.04;92647.22;5049941;28;20057;-38
2023/04/02 10:44:38;;;;;;;;;;;;;;;23.37;26.39;92647.41;5019022;28;19936;-38
2023/04/02 10:47:25;;;;;;;;;;;;;;;23.27;26.92;92638.56;5018411;28;19994;-38
2023/04/02 10:49:53;;;;;;;;;;;;;;;21.95;27.74;92654.78;5020940;28;20436;-38
2023/04/02 10:52:20;;;;;;;;;;;;;;;22.22;26.09;92645.28;5018788;28;19938;-38
2023/04/02 10:54:47;;;;;;;;;;;;;;;22.68;25.28;92649.13;5017907;28;19935;-38
2023/04/02 10:57:15;;;;;;;;;;;;;;;22.21;25.80;92647.38;5020819;28;19933;-38
2023/04/02 10:59:46;;;;;;;;;;;;;;;21.79;26.65;92654.09;5019928;28;20349;-38
2023/04/02 11:02:27;;;;;;;;;;;;;;;21.41;26.64;92646.94;5033131;28;19958;-38
2023/04/02 11:04:52;;;;;;;;;;;;;;;20.48;28.82;92637.31;5016760;28;20422;-38
2023/04/02 11:07:18;;;;;;;;;;;;;;;21.12;27.27;92631.00;5015624;28;20037;-38
2023/04/02 11:09:44;;;;;;;;;;;;;;;21.61;29.83;92644.97;5030196;28;19930;-38
2023/04/02 11:12:15;;;;;;;;;;;;;;;22.75;25.82;92631.09;5033534;28;19981;-38
2023/04/02 11:14:40;;;;;;;;;;;;;;;22.92;27.59;92633.84;5033071;28;20044;-38
2023/04/02 11:17:11;;;;;;;;;;;;;;;23.73;25.43;92619.72;5015124;28;20495;-38
2023/04/02 11:19:36;;;;;;;;;;;;;;;24.43;24.35;92621.22;5017332;28;19936;-39
2023/04/02 11:22:02;;;;;;;;;;;;;;;23.97;26.53;92635.28;5023255;28;20508;-38
2023/04/02 11:24:31;;;;;;;;;;;;;;;21.95;25.00;92631.56;5018915;28;19936;-39
2023/04/02 11:27:09;;;;;;;;;;;;;;;21.99;24.68;92642.97;5022443;28;20015;-39
2023/04/02 11:29:57;;;;;;;;;;;;;;;21.59;23.07;92630.84;5022048;28;19935;-38
2023/04/02 11:32:24;;;;;;;;;;;;;;;20.73;26.09;92623.00;5020940;28;19942;-38
2023/04/02 11:34:49;;;;;;;;;;;;;;;20.59;28.89;92632.88;5023425;28;20379;-38
2023/04/02 11:37:33;;;;;;;;;;;;;;;20.48;26.10;92617.69;5017459;28;19941;-38
2023/04/02 11:39:59;;;;;;;;;;;;;;;21.19;26.36;92623.56;5021419;28;19938;-38
2023/04/02 11:42:34;;;;;;;;;;;;;;;20.80;27.43;92612.75;5018767;28;20704;-38
2023/04/02 11:45:18;;;;;;;;;;;;;;;20.82;25.46;92613.56;5019091;28;19927;-38
2023/04/02 11:48:06;;;;;;;;;;;;;;;19.80;26.63;92609.66;5021198;28;19960;-38
2023/04/02 11:50:44;;;;;;;;;;;;;;;19.60;27.79;92609.44;5022629;28;19935;-39
2023/04/02 11:53:10;;;;;;;;;;;;;;;19.23;28.37;92605.50;5023302;28;20027;-38
2023/04/02 11:55:36;;;;;;;;;;;;;;;19.28;27.61;92609.91;5017370;28;20418;-38
2023/04/02 11:58:01;;;;;;;;;;;;;;;19.33;29.70;92603.91;5020289;28;19931;-38
2023/04/02 12:00:29;;;;;;;;;;;;;;;19.12;30.83;92611.94;5020490;28;20056;-39
2023/04/02 12:02:58;;;;;;;;;;;;;;;18.37;31.11;92610.94;5020606;28;20397;-38
2023/04/02 12:05:29;;;;;;;;;;;;;;;18.77;29.35;92615.84;5025225;28;19929;-38
2023/04/02 12:08:24;;;;;;;;;;;;;;;18.58;28.74;92601.56;5021748;28;19960;-38
2023/04/02 12:10:52;;;;;;;;;;;;;;;19.49;28.64;92606.78;5035042;28;20405;-38
2023/04/02 12:13:37;;;;;;;;;;;;;;;19.74;28.08;92603.78;5021302;28;19973;-38
2023/04/02 12:16:03;;;;;;;;;;;;;;;19.91;29.62;92608.03;5020617;28;19935;-38
2023/04/02 12:18:28;;;;;;;;;;;;;;;20.53;30.18;92610.88;5019378;28;19925;-38
2023/04/02 12:20:55;;;;;;;;;;;;;;;20.61;29.02;92602.84;5017841;28;20031;-39
2023/04/02 12:23:30;;;;;;;;;;;;;;;20.37;27.50;92610.19;5020302;28;19931;-39
2023/04/02 12:26:00;;;;;;;;;;;;;;;20.08;28.22;92607.41;5052184;28;19953;-39
2023/04/02 12:28:27;;;;;;;;;;;;;;;20.00;29.48;92596.59;5017927;28;20682;-39
2023/04/02 12:31:01;;;;;;;;;;;;;;;19.77;29.20;92599.72;5022867;28;19937;-38
2023/04/02 12:33:26;;;;;;;;;;;;;;;19.83;29.59;92597.19;5035080;28;19938;-38
2023/04/02 12:35:54;;;;;;;;;;;;;;;19.86;28.95;92598.03;5019044;28;19966;-38
2023/04/02 12:38:20;;;;;;;;;;;;;;;19.66;29.63;92601.31;5047157;28;20302;-38
2023/04/02 12:40:56;;;;;;;;;;;;;;;19.99;30.71;92605.63;5018174;28;19942;-38
2023/04/02 12:43:25;;;;;;;;;;;;;;;20.19;28.37;92593.25;5052041;28;20050;-38
2023/04/02 12:45:54;;;;;;;;;;;;;;;20.29;30.00;92595.81;5017779;28;19995;-38
2023/04/02 12:48:19;;;;;;;;;;;;;;;20.58;30.23;92589.34;5019084;28;19933;-38
2023/04/02 12:50:45;;;;;;;;;;;;;;;21.16;26.37;92596.78;5015700;28;20840;-38
2023/04/02 12:53:30;;;;;;;;;;;;;;;20.84;28.09;92596.09;5037379;28;19935;-38
2023/04/02 12:55:56;;;;;;;;;;;;;;;20.29;29.60;92598.63;5019639;28;20040;-38
2023/04/02 12:58:29;;;;;;;;;;;;;;;20.51;28.16;92591.16;5019494;28;20031;-38
2023/04/02 13:01:08;;;;;;;;;;;;;;;20.52;28.99;92589.09;5024689;28;19962;-39
2023/04/02 13:03:33;;;;;;;;;;;;;;;19.92;29.38;92587.09;5023047;28;20314;-38
2023/04/02 13:05:59;;;;;;;;;;;;;;;20.09;28.41;92589.25;5018530;28;19951;-39